createdAt,value
2017-09-22T00:00:06.463Z,12.47
2017-09-22T00:01:07.188Z,12.47
2017-09-22T00:02:07.908Z,12.50
2017-09-22T00:03:08.647Z,12.46
2017-09-22T00:04:09.369Z,12.45
2017-09-22T00:05:10.092Z,12.39
2017-09-22T00:06:10.810Z,12.42
2017-09-22T00:07:11.552Z,12.37
2017-09-22T00:08:12.272Z,12.39
2017-09-22T00:09:13.013Z,12.29
2017-09-22T00:10:13.736Z,12.25
2017-09-22T00:11:14.457Z,12.27
2017-09-22T00:12:15.177Z,12.36
2017-09-22T00:13:15.922Z,12.31
2017-09-22T00:14:16.642Z,12.29
2017-09-22T00:15:17.364Z,12.29
2017-09-22T00:16:18.086Z,12.36
2017-09-22T00:17:18.807Z,12.27
2017-09-22T00:18:19.527Z,12.13
2017-09-22T00:19:20.250Z,12.24
2017-09-22T00:20:20.974Z,12.27
2017-09-22T00:21:21.693Z,12.18
2017-09-22T00:22:22.412Z,12.17
2017-09-22T00:23:23.131Z,12.24
2017-09-22T00:24:23.852Z,12.17
2017-09-22T00:25:24.576Z,12.17
2017-09-22T00:26:25.298Z,12.28
2017-09-22T00:27:26.047Z,12.22
2017-09-22T00:28:26.767Z,12.18
2017-09-22T00:29:27.488Z,12.22
2017-09-22T00:30:28.211Z,12.28
2017-09-22T00:31:28.969Z,12.20
2017-09-22T00:32:29.652Z,12.20
2017-09-22T00:33:30.396Z,12.20
2017-09-22T00:34:31.116Z,12.12
2017-09-22T00:35:31.860Z,12.13
2017-09-22T00:36:32.599Z,12.18
2017-09-22T00:37:33.340Z,12.18
2017-09-22T00:38:34.059Z,12.12
2017-09-22T00:39:34.782Z,12.13
2017-09-22T00:40:35.500Z,12.04
2017-09-22T00:41:36.244Z,12.03
2017-09-22T00:42:36.965Z,12.12
2017-09-22T00:43:37.685Z,12.02
2017-09-22T00:44:38.404Z,12.04
2017-09-22T00:45:39.147Z,12.04
2017-09-22T00:46:39.868Z,11.91
2017-09-22T00:47:40.591Z,11.97
2017-09-22T00:48:41.313Z,11.97
2017-09-22T00:49:42.033Z,11.97
2017-09-22T00:50:42.754Z,11.95
2017-09-22T00:51:43.475Z,12.00
2017-09-22T00:52:44.194Z,11.97
2017-09-22T00:53:44.916Z,11.94
2017-09-22T00:54:45.641Z,11.94
2017-09-22T00:55:46.362Z,11.88
2017-09-22T00:56:47.106Z,11.84
2017-09-22T00:57:47.827Z,11.94
2017-09-22T00:58:48.549Z,11.86
2017-09-22T00:59:49.289Z,11.78
2017-09-22T01:00:50.034Z,11.81
2017-09-22T01:01:50.751Z,11.83
2017-09-22T01:02:51.497Z,11.86
2017-09-22T01:03:52.219Z,11.81
2017-09-22T01:04:52.942Z,11.77
2017-09-22T01:05:53.662Z,11.73
2017-09-22T01:06:54.383Z,11.80
2017-09-22T01:07:55.122Z,11.77
2017-09-22T01:08:55.864Z,11.78
2017-09-22T01:09:56.587Z,11.80
2017-09-22T01:10:57.308Z,11.80
2017-09-22T01:11:58.031Z,11.78
2017-09-22T01:12:58.775Z,11.68
2017-09-22T01:13:59.492Z,11.69
2017-09-22T01:15:00.214Z,11.69
2017-09-22T01:16:00.936Z,11.75
2017-09-22T01:17:01.657Z,11.68
2017-09-22T01:18:02.381Z,11.68
2017-09-22T01:19:03.098Z,11.69
2017-09-22T01:20:03.842Z,11.75
2017-09-22T01:21:04.567Z,11.62
2017-09-22T01:22:05.287Z,11.57
2017-09-22T01:23:06.005Z,11.54
2017-09-22T01:24:06.746Z,11.54
2017-09-22T01:25:07.468Z,11.57
2017-09-22T01:26:08.188Z,11.55
2017-09-22T01:27:08.908Z,11.55
2017-09-22T01:28:09.652Z,11.54
2017-09-22T01:29:10.394Z,11.59
2017-09-22T01:30:11.132Z,11.57
2017-09-22T01:31:11.856Z,11.48
2017-09-22T01:32:12.576Z,11.50
2017-09-22T01:33:13.297Z,11.55
2017-09-22T01:34:14.045Z,11.50
2017-09-22T01:35:14.759Z,11.45
2017-09-22T01:36:15.480Z,11.43
2017-09-22T01:37:16.203Z,11.43
2017-09-22T01:38:16.947Z,11.37
2017-09-22T01:39:17.689Z,11.47
2017-09-22T01:40:18.411Z,11.43
2017-09-22T01:41:19.153Z,11.40
2017-09-22T01:42:19.874Z,11.41
2017-09-22T01:43:20.616Z,11.36
2017-09-22T01:44:21.340Z,11.37
2017-09-22T01:45:22.057Z,11.43
2017-09-22T01:46:22.800Z,11.45
2017-09-22T01:47:23.521Z,11.33
2017-09-22T01:48:24.263Z,11.32
2017-09-22T01:49:25.005Z,11.35
2017-09-22T01:50:25.727Z,11.35
2017-09-22T01:51:26.448Z,11.37
2017-09-22T01:52:27.189Z,11.27
2017-09-22T01:53:27.911Z,11.27
2017-09-22T01:54:28.657Z,11.30
2017-09-22T01:55:29.378Z,11.32
2017-09-22T01:56:30.119Z,11.26
2017-09-22T01:57:30.860Z,11.29
2017-09-22T01:58:31.586Z,11.32
2017-09-22T01:59:32.305Z,11.37
2017-09-22T02:00:33.026Z,11.35
2017-09-22T02:01:33.748Z,11.33
2017-09-22T02:02:34.467Z,11.25
2017-09-22T02:03:35.220Z,11.30
2017-09-22T02:04:35.959Z,11.32
2017-09-22T02:05:36.698Z,11.30
2017-09-22T02:06:37.441Z,11.22
2017-09-22T02:07:38.160Z,11.23
2017-09-22T02:08:38.883Z,11.22
2017-09-22T02:09:39.620Z,11.26
2017-09-22T02:10:40.348Z,11.19
2017-09-22T02:11:41.086Z,11.14
2017-09-22T02:12:41.808Z,11.11
2017-09-22T02:13:42.546Z,11.12
2017-09-22T02:14:43.266Z,11.07
2017-09-22T02:15:43.987Z,11.14
2017-09-22T02:16:44.706Z,11.11
2017-09-22T02:17:45.451Z,11.14
2017-09-22T02:18:46.171Z,11.14
2017-09-22T02:19:46.912Z,11.08
2017-09-22T02:20:47.631Z,11.12
2017-09-22T02:21:48.357Z,11.10
2017-09-22T02:22:49.077Z,11.12
2017-09-22T02:23:49.793Z,11.14
2017-09-22T02:24:50.514Z,11.11
2017-09-22T02:25:51.232Z,11.07
2017-09-22T02:26:51.950Z,11.05
2017-09-22T02:27:52.672Z,11.02
2017-09-22T02:28:53.392Z,10.94
2017-09-22T02:29:54.137Z,10.99
2017-09-22T02:30:54.858Z,10.94
2017-09-22T02:31:55.576Z,10.94
2017-09-22T02:32:56.298Z,10.92
2017-09-22T02:33:57.019Z,10.94
2017-09-22T02:34:57.776Z,11.08
2017-09-22T02:35:58.463Z,10.94
2017-09-22T02:36:59.181Z,10.99
2017-09-22T02:37:59.905Z,10.89
2017-09-22T02:39:00.626Z,10.92
2017-09-22T02:40:01.348Z,10.89
2017-09-22T02:41:02.066Z,10.90
2017-09-22T02:42:02.787Z,10.90
2017-09-22T02:43:03.508Z,10.89
2017-09-22T02:44:04.228Z,10.94
2017-09-22T02:45:04.950Z,10.92
2017-09-22T02:46:05.691Z,10.92
2017-09-22T02:47:06.410Z,10.84
2017-09-22T02:48:07.129Z,10.94
2017-09-22T02:49:07.852Z,10.86
2017-09-22T02:50:08.572Z,10.86
2017-09-22T02:51:09.315Z,10.90
2017-09-22T02:52:10.034Z,10.87
2017-09-22T02:53:10.754Z,10.84
2017-09-22T02:54:11.473Z,10.86
2017-09-22T02:55:12.197Z,10.92
2017-09-22T02:56:12.934Z,10.86
2017-09-22T02:57:13.657Z,10.87
2017-09-22T02:58:14.373Z,10.90
2017-09-22T02:59:15.094Z,10.84
2017-09-22T03:00:15.816Z,10.84
2017-09-22T03:01:16.535Z,10.94
2017-09-22T03:02:17.256Z,10.81
2017-09-22T03:03:17.995Z,10.89
2017-09-22T03:04:18.736Z,10.82
2017-09-22T03:05:19.456Z,10.90
2017-09-22T03:06:20.184Z,10.86
2017-09-22T03:07:20.897Z,10.90
2017-09-22T03:08:21.618Z,10.86
2017-09-22T03:09:22.335Z,10.86
2017-09-22T03:10:23.055Z,10.87
2017-09-22T03:11:23.775Z,10.92
2017-09-22T03:12:24.514Z,10.89
2017-09-22T03:13:25.237Z,10.93
2017-09-22T03:14:25.966Z,10.81
2017-09-22T03:15:26.680Z,10.82
2017-09-22T03:16:27.421Z,10.87
2017-09-22T03:17:28.139Z,10.84
2017-09-22T03:18:28.862Z,10.87
2017-09-22T03:19:29.601Z,10.79
2017-09-22T03:20:30.324Z,10.81
2017-09-22T03:21:31.046Z,10.79
2017-09-22T03:22:31.768Z,10.78
2017-09-22T03:23:32.488Z,10.78
2017-09-22T03:24:33.206Z,10.82
2017-09-22T03:25:33.926Z,10.74
2017-09-22T03:26:34.647Z,10.82
2017-09-22T03:27:35.367Z,10.72
2017-09-22T03:28:36.085Z,10.82
2017-09-22T03:29:36.806Z,10.72
2017-09-22T03:30:37.550Z,10.75
2017-09-22T03:31:38.293Z,10.72
2017-09-22T03:32:39.010Z,10.74
2017-09-22T03:33:39.731Z,10.63
2017-09-22T03:34:40.471Z,10.63
2017-09-22T03:35:41.189Z,10.67
2017-09-22T03:36:41.912Z,10.60
2017-09-22T03:37:42.633Z,10.71
2017-09-22T03:38:43.374Z,10.71
2017-09-22T03:39:44.097Z,10.72
2017-09-22T03:40:44.817Z,10.72
2017-09-22T03:41:45.540Z,10.63
2017-09-22T03:42:46.258Z,10.61
2017-09-22T03:43:46.976Z,10.69
2017-09-22T03:44:47.695Z,10.64
2017-09-22T03:45:48.419Z,10.71
2017-09-22T03:46:49.138Z,10.68
2017-09-22T03:47:49.859Z,10.64
2017-09-22T03:48:50.579Z,10.61
2017-09-22T03:49:51.298Z,10.64
2017-09-22T03:50:52.020Z,10.67
2017-09-22T03:51:52.762Z,10.67
2017-09-22T03:52:53.483Z,10.71
2017-09-22T03:53:54.207Z,10.59
2017-09-22T03:54:54.924Z,10.61
2017-09-22T03:55:55.663Z,10.61
2017-09-22T03:56:56.385Z,10.59
2017-09-22T03:57:57.104Z,10.59
2017-09-22T03:58:57.823Z,10.61
2017-09-22T03:59:58.543Z,10.63
2017-09-22T04:00:59.263Z,10.64
2017-09-22T04:01:59.986Z,10.56
2017-09-22T04:03:00.707Z,10.59
2017-09-22T04:04:01.429Z,10.59
2017-09-22T04:05:02.147Z,10.54
2017-09-22T04:06:02.869Z,10.59
2017-09-22T04:07:03.589Z,10.60
2017-09-22T04:08:04.314Z,10.51
2017-09-22T04:09:05.030Z,10.60
2017-09-22T04:10:05.753Z,10.56
2017-09-22T04:11:06.494Z,10.57
2017-09-22T04:12:07.214Z,10.56
2017-09-22T04:13:07.934Z,10.60
2017-09-22T04:14:08.655Z,10.57
2017-09-22T04:15:09.373Z,10.59
2017-09-22T04:16:10.094Z,10.57
2017-09-22T04:17:10.832Z,10.57
2017-09-22T04:18:11.554Z,10.59
2017-09-22T04:19:12.274Z,10.60
2017-09-22T04:20:12.994Z,10.60
2017-09-22T04:21:13.714Z,10.49
2017-09-22T04:22:14.438Z,10.56
2017-09-22T04:23:15.179Z,10.57
2017-09-22T04:24:15.898Z,10.57
2017-09-22T04:25:16.625Z,10.60
2017-09-22T04:26:17.358Z,10.59
2017-09-22T04:27:18.077Z,10.54
2017-09-22T04:28:18.797Z,10.60
2017-09-22T04:29:19.516Z,10.57
2017-09-22T04:30:20.235Z,10.63
2017-09-22T04:31:20.973Z,10.48
2017-09-22T04:32:21.698Z,10.51
2017-09-22T04:33:22.439Z,10.49
2017-09-22T04:34:23.162Z,10.59
2017-09-22T04:35:23.880Z,10.49
2017-09-22T04:36:24.601Z,10.48
2017-09-22T04:37:25.344Z,10.44
2017-09-22T04:38:26.084Z,10.42
2017-09-22T04:39:26.825Z,10.49
2017-09-22T04:40:27.546Z,10.44
2017-09-22T04:41:28.265Z,10.54
2017-09-22T04:42:28.987Z,10.49
2017-09-22T04:43:29.704Z,10.42
2017-09-22T04:44:30.425Z,10.49
2017-09-22T04:45:31.147Z,10.49
2017-09-22T04:46:31.888Z,10.49
2017-09-22T04:47:32.629Z,10.46
2017-09-22T04:48:33.350Z,10.38
2017-09-22T04:49:34.070Z,10.48
2017-09-22T04:50:34.792Z,10.53
2017-09-22T04:51:35.535Z,10.49
2017-09-22T04:52:36.261Z,10.51
2017-09-22T04:53:36.978Z,10.48
2017-09-22T04:54:37.698Z,10.42
2017-09-22T04:55:38.419Z,10.41
2017-09-22T04:56:39.139Z,10.42
2017-09-22T04:57:39.861Z,10.38
2017-09-22T04:58:40.583Z,10.34
2017-09-22T04:59:41.302Z,10.34
2017-09-22T05:00:42.026Z,10.31
2017-09-22T05:01:42.746Z,10.34
2017-09-22T05:02:43.465Z,10.22
2017-09-22T05:03:44.185Z,10.35
2017-09-22T05:04:44.906Z,10.25
2017-09-22T05:05:45.626Z,10.30
2017-09-22T05:06:46.344Z,10.23
2017-09-22T05:07:47.065Z,10.26
2017-09-22T05:08:47.788Z,10.23
2017-09-22T05:09:48.510Z,10.19
2017-09-22T05:10:49.232Z,10.22
2017-09-22T05:11:49.956Z,10.15
2017-09-22T05:12:50.678Z,10.26
2017-09-22T05:13:51.399Z,10.16
2017-09-22T05:14:52.117Z,10.12
2017-09-22T05:15:52.840Z,10.19
2017-09-22T05:16:53.560Z,10.20
2017-09-22T05:17:54.281Z,10.07
2017-09-22T05:18:55.030Z,10.26
2017-09-22T05:19:55.783Z,10.20
2017-09-22T05:20:56.539Z,10.19
2017-09-22T05:21:57.267Z,10.20
2017-09-22T05:22:57.991Z,10.25
2017-09-22T05:23:59.063Z,10.26
2017-09-22T05:24:59.701Z,10.33
2017-09-22T05:26:00.424Z,10.33
2017-09-22T05:27:01.145Z,10.37
2017-09-22T05:28:01.868Z,10.37
2017-09-22T05:29:02.590Z,10.33
2017-09-22T05:30:03.337Z,10.46
2017-09-22T05:31:04.059Z,10.37
2017-09-22T05:32:04.785Z,10.44
2017-09-22T05:33:05.506Z,10.49
2017-09-22T05:34:06.231Z,10.49
2017-09-22T05:35:06.953Z,10.49
2017-09-22T05:36:07.697Z,10.51
2017-09-22T05:37:08.416Z,10.60
2017-09-22T05:38:09.139Z,10.54
2017-09-22T05:39:09.889Z,10.59
2017-09-22T05:40:10.636Z,10.59
2017-09-22T05:41:11.379Z,10.54
2017-09-22T05:42:12.107Z,10.57
2017-09-22T05:43:12.854Z,10.56
2017-09-22T05:44:13.579Z,10.54
2017-09-22T05:45:14.300Z,10.60
2017-09-22T05:46:15.026Z,10.68
2017-09-22T05:47:15.752Z,10.63
2017-09-22T05:48:16.497Z,10.71
2017-09-22T05:49:17.222Z,10.63
2017-09-22T05:50:17.947Z,10.69
2017-09-22T05:51:18.671Z,10.72
2017-09-22T05:52:19.399Z,10.78
2017-09-22T05:53:20.122Z,10.86
2017-09-22T05:54:20.849Z,10.87
2017-09-22T05:55:21.575Z,10.89
2017-09-22T05:56:22.317Z,10.93
2017-09-22T05:57:23.042Z,10.99
2017-09-22T05:58:23.765Z,11.05
2017-09-22T05:59:24.489Z,11.07
2017-09-22T06:00:25.234Z,11.19
2017-09-22T06:01:25.961Z,11.30
2017-09-22T06:02:26.687Z,11.26
2017-09-22T06:03:27.413Z,11.23
2017-09-22T06:04:28.157Z,11.32
2017-09-22T06:05:28.881Z,11.37
2017-09-22T06:06:29.610Z,11.32
2017-09-22T06:07:30.332Z,11.32
2017-09-22T06:08:31.056Z,11.37
2017-09-22T06:09:31.781Z,11.41
2017-09-22T06:10:32.505Z,11.47
2017-09-22T06:11:33.232Z,11.37
2017-09-22T06:12:33.959Z,11.41
2017-09-22T06:13:34.681Z,11.47
2017-09-22T06:14:35.407Z,11.44
2017-09-22T06:15:36.134Z,11.51
2017-09-22T06:16:36.864Z,11.54
2017-09-22T06:17:37.591Z,11.60
2017-09-22T06:18:38.319Z,11.75
2017-09-22T06:19:39.045Z,11.87
2017-09-22T06:20:39.772Z,12.04
2017-09-22T06:21:40.502Z,12.13
2017-09-22T06:22:41.234Z,12.18
2017-09-22T06:23:41.954Z,12.24
2017-09-22T06:24:42.683Z,12.47
2017-09-22T06:25:43.412Z,12.53
2017-09-22T06:26:44.171Z,12.67
2017-09-22T06:27:44.893Z,12.85
2017-09-22T06:28:45.617Z,13.00
2017-09-22T06:29:46.346Z,13.03
2017-09-22T06:30:47.074Z,13.04
2017-09-22T06:31:47.825Z,13.23
2017-09-22T06:32:48.555Z,13.35
2017-09-22T06:33:49.283Z,13.37
2017-09-22T06:34:50.011Z,13.41
2017-09-22T06:35:50.743Z,13.50
2017-09-22T06:36:51.470Z,13.53
2017-09-22T06:37:52.200Z,13.63
2017-09-22T06:38:52.923Z,13.41
2017-09-22T06:39:53.652Z,13.57
2017-09-22T06:40:54.377Z,13.71
2017-09-22T06:41:55.109Z,13.89
2017-09-22T06:42:55.862Z,13.96
2017-09-22T06:43:56.607Z,13.95
2017-09-22T06:44:57.336Z,13.85
2017-09-22T06:45:58.068Z,14.07
2017-09-22T06:46:58.794Z,14.04
2017-09-22T06:47:59.523Z,14.00
2017-09-22T06:49:00.274Z,14.08
2017-09-22T06:50:01.002Z,14.08
2017-09-22T06:51:01.730Z,14.12
2017-09-22T06:52:02.459Z,14.11
2017-09-22T06:53:03.188Z,14.32
2017-09-22T06:54:03.916Z,14.32
2017-09-22T06:55:04.643Z,14.44
2017-09-22T06:56:05.374Z,14.51
2017-09-22T06:57:06.100Z,14.60
2017-09-22T06:58:06.852Z,14.66
2017-09-22T06:59:07.635Z,14.69
2017-09-22T07:00:08.369Z,14.78
2017-09-22T07:01:09.092Z,14.70
2017-09-22T07:02:09.822Z,14.79
2017-09-22T07:03:10.551Z,14.92
2017-09-22T07:04:11.281Z,14.86
2017-09-22T07:05:12.011Z,14.96
2017-09-22T07:06:12.761Z,15.14
2017-09-22T07:07:13.489Z,15.10
2017-09-22T07:08:14.218Z,15.17
2017-09-22T07:09:14.953Z,15.28
2017-09-22T07:10:15.684Z,15.40
2017-09-22T07:11:16.412Z,15.49
2017-09-22T07:12:17.164Z,15.62
2017-09-22T07:13:17.900Z,15.84
2017-09-22T07:14:18.626Z,15.88
2017-09-22T07:15:19.375Z,16.21
2017-09-22T07:16:20.102Z,16.36
2017-09-22T07:17:20.835Z,16.61
2017-09-22T07:18:21.563Z,16.78
2017-09-22T07:19:22.298Z,16.96
2017-09-22T07:20:23.029Z,17.06
2017-09-22T07:21:23.762Z,17.14
2017-09-22T07:22:24.493Z,17.09
2017-09-22T07:23:25.228Z,17.19
2017-09-22T07:24:25.953Z,17.20
2017-09-22T07:25:26.685Z,17.26
2017-09-22T07:26:27.454Z,17.33
2017-09-22T07:27:28.187Z,17.30
2017-09-22T07:28:28.921Z,17.44
2017-09-22T07:29:29.703Z,17.44
2017-09-22T07:30:30.458Z,17.29
2017-09-22T07:31:31.192Z,17.22
2017-09-22T07:32:31.923Z,17.06
2017-09-22T07:33:32.698Z,17.05
2017-09-22T07:34:33.430Z,17.19
2017-09-22T07:35:34.160Z,17.16
2017-09-22T07:36:34.891Z,17.38
2017-09-22T07:37:35.626Z,17.65
2017-09-22T07:38:36.357Z,17.67
2017-09-22T07:39:37.091Z,17.97
2017-09-22T07:40:37.847Z,18.23
2017-09-22T07:41:38.600Z,18.49
2017-09-22T07:42:39.363Z,18.80
2017-09-22T07:43:40.099Z,19.16
2017-09-22T07:44:40.835Z,18.86
2017-09-22T07:45:41.575Z,18.81
2017-09-22T07:46:42.306Z,18.80
2017-09-22T07:47:43.041Z,18.47
2017-09-22T07:48:43.776Z,18.47
2017-09-22T07:49:44.514Z,18.65
2017-09-22T07:50:45.274Z,18.41
2017-09-22T07:51:46.007Z,18.73
2017-09-22T07:52:46.762Z,18.71
2017-09-22T07:53:47.522Z,18.92
2017-09-22T07:54:48.253Z,19.02
2017-09-22T07:55:48.989Z,19.54
2017-09-22T07:56:49.728Z,19.59
2017-09-22T07:57:50.488Z,19.89
2017-09-22T07:58:51.226Z,20.31
2017-09-22T07:59:51.965Z,20.51
2017-09-22T08:00:52.706Z,20.74
2017-09-22T08:01:53.448Z,20.99
2017-09-22T08:02:54.194Z,20.67
2017-09-22T08:03:54.926Z,20.96
2017-09-22T08:04:55.689Z,21.15
2017-09-22T08:05:56.434Z,21.58
2017-09-22T08:06:57.172Z,21.80
2017-09-22T08:07:57.913Z,21.91
2017-09-22T08:08:58.654Z,22.15
2017-09-22T08:09:59.398Z,22.30
2017-09-22T08:11:00.161Z,22.20
2017-09-22T08:12:00.907Z,22.30
2017-09-22T08:13:01.669Z,22.76
2017-09-22T08:14:02.406Z,22.83
2017-09-22T08:15:03.145Z,23.12
2017-09-22T08:16:03.891Z,23.56
2017-09-22T08:17:04.657Z,23.73
2017-09-22T08:18:05.394Z,23.91
2017-09-22T08:19:06.135Z,24.18
2017-09-22T08:20:06.874Z,23.71
2017-09-22T08:21:07.636Z,23.65
2017-09-22T08:22:08.379Z,23.92
2017-09-22T08:23:09.118Z,23.78
2017-09-22T08:24:09.860Z,23.93
2017-09-22T08:25:10.599Z,24.35
2017-09-22T08:26:11.341Z,24.40
2017-09-22T08:27:12.107Z,23.84
2017-09-22T08:28:12.854Z,23.47
2017-09-22T08:29:13.604Z,23.63
2017-09-22T08:30:14.358Z,24.03
2017-09-22T08:31:15.118Z,24.33
2017-09-22T08:32:15.860Z,24.63
2017-09-22T08:33:16.623Z,24.73
2017-09-22T08:34:17.384Z,24.84
2017-09-22T08:35:18.133Z,24.91
2017-09-22T08:36:18.869Z,24.96
2017-09-22T08:37:19.609Z,25.13
2017-09-22T08:38:20.351Z,25.36
2017-09-22T08:39:21.095Z,25.28
2017-09-22T08:40:21.836Z,25.10
2017-09-22T08:41:22.577Z,24.80
2017-09-22T08:42:23.319Z,24.61
2017-09-22T08:43:24.059Z,24.69
2017-09-22T08:44:24.819Z,24.77
2017-09-22T08:45:25.559Z,24.84
2017-09-22T08:46:26.300Z,24.76
2017-09-22T08:47:27.039Z,24.88
2017-09-22T08:48:27.783Z,24.77
2017-09-22T08:49:28.526Z,24.95
2017-09-22T08:50:29.265Z,24.29
2017-09-22T08:51:30.029Z,24.95
2017-09-22T08:52:30.769Z,25.32
2017-09-22T08:53:31.539Z,25.66
2017-09-22T08:54:32.282Z,25.41
2017-09-22T08:55:33.025Z,25.78
2017-09-22T08:56:33.784Z,26.06
2017-09-22T08:57:34.527Z,25.84
2017-09-22T08:58:35.291Z,25.55
2017-09-22T08:59:36.032Z,25.55
2017-09-22T09:00:36.776Z,24.81
2017-09-22T09:01:37.518Z,24.60
2017-09-22T09:02:38.259Z,23.88
2017-09-22T09:03:39.000Z,24.23
2017-09-22T09:04:39.765Z,23.78
2017-09-22T09:05:40.506Z,24.01
2017-09-22T09:06:41.254Z,24.03
2017-09-22T09:07:41.995Z,24.13
2017-09-22T09:08:42.737Z,24.13
2017-09-22T09:09:43.481Z,24.36
2017-09-22T09:10:44.223Z,24.88
2017-09-22T09:11:44.966Z,24.99
2017-09-22T09:12:45.708Z,25.53
2017-09-22T09:13:46.451Z,25.59
2017-09-22T09:14:47.195Z,26.06
2017-09-22T09:15:47.935Z,26.56
2017-09-22T09:16:48.679Z,26.58
2017-09-22T09:17:49.422Z,26.78
2017-09-22T09:18:50.186Z,27.33
2017-09-22T09:19:50.932Z,27.78
2017-09-22T09:20:51.688Z,27.59
2017-09-22T09:21:52.425Z,27.45
2017-09-22T09:22:53.219Z,27.83
2017-09-22T09:23:53.962Z,27.35
2017-09-22T09:24:54.707Z,26.60
2017-09-22T09:25:55.451Z,26.83
2017-09-22T09:26:56.192Z,26.16
2017-09-22T09:27:56.935Z,26.02
2017-09-22T09:28:57.700Z,26.26
2017-09-22T09:29:58.465Z,26.43
2017-09-22T09:30:59.228Z,26.70
2017-09-22T09:31:59.973Z,26.97
2017-09-22T09:33:00.738Z,26.96
2017-09-22T09:34:01.479Z,27.14
2017-09-22T09:35:02.231Z,26.65
2017-09-22T09:36:02.970Z,25.28
2017-09-22T09:37:03.715Z,24.99
2017-09-22T09:38:04.460Z,25.31
2017-09-22T09:39:05.202Z,24.99
2017-09-22T09:40:05.947Z,25.17
2017-09-22T09:41:06.691Z,25.68
2017-09-22T09:42:07.441Z,26.03
2017-09-22T09:43:08.178Z,26.53
2017-09-22T09:44:08.944Z,26.74
2017-09-22T09:45:09.708Z,26.88
2017-09-22T09:46:10.477Z,26.75
2017-09-22T09:47:11.218Z,26.60
2017-09-22T09:48:11.964Z,26.77
2017-09-22T09:49:12.709Z,26.92
2017-09-22T09:50:13.453Z,26.19
2017-09-22T09:51:14.194Z,25.78
2017-09-22T09:52:14.937Z,26.02
2017-09-22T09:53:15.682Z,25.26
2017-09-22T09:54:16.427Z,25.77
2017-09-22T09:55:17.190Z,25.90
2017-09-22T09:56:17.953Z,26.16
2017-09-22T09:57:18.719Z,26.40
2017-09-22T09:58:19.463Z,26.55
2017-09-22T09:59:20.205Z,26.74
2017-09-22T10:00:20.971Z,27.12
2017-09-22T10:01:21.733Z,27.74
2017-09-22T10:02:22.497Z,27.65
2017-09-22T10:03:23.261Z,27.65
2017-09-22T10:04:24.008Z,27.59
2017-09-22T10:05:24.750Z,27.83
2017-09-22T10:06:25.521Z,28.00
2017-09-22T10:07:26.260Z,28.01
2017-09-22T10:08:27.004Z,28.10
2017-09-22T10:09:27.751Z,28.42
2017-09-22T10:10:28.496Z,28.57
2017-09-22T10:11:29.262Z,28.64
2017-09-22T10:12:30.008Z,28.33
2017-09-22T10:13:30.771Z,28.15
2017-09-22T10:14:31.516Z,27.33
2017-09-22T10:15:32.262Z,27.48
2017-09-22T10:16:33.007Z,27.95
2017-09-22T10:17:33.753Z,28.00
2017-09-22T10:18:34.495Z,28.01
2017-09-22T10:19:35.262Z,27.47
2017-09-22T10:20:36.012Z,27.17
2017-09-22T10:21:36.758Z,27.33
2017-09-22T10:22:37.504Z,27.65
2017-09-22T10:23:38.253Z,27.98
2017-09-22T10:24:39.008Z,28.15
2017-09-22T10:25:39.753Z,28.49
2017-09-22T10:26:40.526Z,27.89
2017-09-22T10:27:41.273Z,27.51
2017-09-22T10:28:42.020Z,27.33
2017-09-22T10:29:42.790Z,27.63
2017-09-22T10:30:43.538Z,27.58
2017-09-22T10:31:44.291Z,26.37
2017-09-22T10:32:45.065Z,27.05
2017-09-22T10:33:45.815Z,26.41
2017-09-22T10:34:46.565Z,26.60
2017-09-22T10:35:47.319Z,27.00
2017-09-22T10:36:48.072Z,26.99
2017-09-22T10:37:48.818Z,27.39
2017-09-22T10:38:49.568Z,27.32
2017-09-22T10:39:50.344Z,27.10
2017-09-22T10:40:51.095Z,26.68
2017-09-22T10:41:51.842Z,27.14
2017-09-22T10:42:52.593Z,27.60
2017-09-22T10:43:53.347Z,26.80
2017-09-22T10:44:54.101Z,26.43
2017-09-22T10:45:54.875Z,26.83
2017-09-22T10:46:55.631Z,27.14
2017-09-22T10:47:56.399Z,27.59
2017-09-22T10:48:57.154Z,27.92
2017-09-22T10:49:57.934Z,27.92
2017-09-22T10:50:58.686Z,27.87
2017-09-22T10:51:59.437Z,27.65
2017-09-22T10:53:00.198Z,27.11
2017-09-22T10:54:00.947Z,27.37
2017-09-22T10:55:01.703Z,27.59
2017-09-22T10:56:02.456Z,27.54
2017-09-22T10:57:03.229Z,27.47
2017-09-22T10:58:03.981Z,27.90
2017-09-22T10:59:04.730Z,27.54
2017-09-22T11:00:05.508Z,26.81
2017-09-22T11:01:06.285Z,27.18
2017-09-22T11:02:07.047Z,27.03
2017-09-22T11:03:07.788Z,26.85
2017-09-22T11:04:08.536Z,26.92
2017-09-22T11:05:09.288Z,27.29
2017-09-22T11:06:10.056Z,27.67
2017-09-22T11:07:10.828Z,27.80
2017-09-22T11:08:11.586Z,27.74
2017-09-22T11:09:12.328Z,27.87
2017-09-22T11:10:13.080Z,28.02
2017-09-22T11:11:13.832Z,26.99
2017-09-22T11:12:14.580Z,27.02
2017-09-22T11:13:15.327Z,26.59
2017-09-22T11:14:16.078Z,27.21
2017-09-22T11:15:16.828Z,27.93
2017-09-22T11:16:17.574Z,28.12
2017-09-22T11:17:18.319Z,28.29
2017-09-22T11:18:19.071Z,28.07
2017-09-22T11:19:19.822Z,28.19
2017-09-22T11:20:20.591Z,28.05
2017-09-22T11:21:21.336Z,27.98
2017-09-22T11:22:22.079Z,26.40
2017-09-22T11:23:22.839Z,25.77
2017-09-22T11:24:23.579Z,25.83
2017-09-22T11:25:24.321Z,25.25
2017-09-22T11:26:25.065Z,25.07
2017-09-22T11:27:25.806Z,24.77
2017-09-22T11:28:26.549Z,24.26
2017-09-22T11:29:27.287Z,23.95
2017-09-22T11:30:28.029Z,23.96
2017-09-22T11:31:28.769Z,23.96
2017-09-22T11:32:29.513Z,24.13
2017-09-22T11:33:30.249Z,24.06
2017-09-22T11:34:30.991Z,24.14
2017-09-22T11:35:31.732Z,23.84
2017-09-22T11:36:32.471Z,24.06
2017-09-22T11:37:33.213Z,23.98
2017-09-22T11:38:33.953Z,23.86
2017-09-22T11:39:34.715Z,23.68
2017-09-22T11:40:35.452Z,23.81
2017-09-22T11:41:36.195Z,23.69
2017-09-22T11:42:36.954Z,22.93
2017-09-22T11:43:37.694Z,22.84
2017-09-22T11:44:38.431Z,22.70
2017-09-22T11:45:39.173Z,22.44
2017-09-22T11:46:39.934Z,22.11
2017-09-22T11:47:40.698Z,21.98
2017-09-22T11:48:41.433Z,21.35
2017-09-22T11:49:42.190Z,21.11
2017-09-22T11:50:42.933Z,21.17
2017-09-22T11:51:43.669Z,21.20
2017-09-22T11:52:44.407Z,21.05
2017-09-22T11:53:45.143Z,20.92
2017-09-22T11:54:45.902Z,20.81
2017-09-22T11:55:46.641Z,20.77
2017-09-22T11:56:47.377Z,20.51
2017-09-22T11:57:48.138Z,20.60
2017-09-22T11:58:48.876Z,20.40
2017-09-22T11:59:49.636Z,20.47
2017-09-22T12:00:50.372Z,20.62
2017-09-22T12:01:51.145Z,20.40
2017-09-22T12:02:51.854Z,20.52
2017-09-22T12:03:52.591Z,20.58
2017-09-22T12:04:53.333Z,20.60
2017-09-22T12:05:54.074Z,20.81
2017-09-22T12:06:54.812Z,20.81
2017-09-22T12:07:55.572Z,20.82
2017-09-22T12:08:56.312Z,20.99
2017-09-22T12:09:57.053Z,20.96
2017-09-22T12:10:57.792Z,21.15
2017-09-22T12:11:58.532Z,20.87
2017-09-22T12:12:59.269Z,20.69
2017-09-22T12:14:00.008Z,20.77
2017-09-22T12:15:00.742Z,20.82
2017-09-22T12:16:01.499Z,20.80
2017-09-22T12:17:02.238Z,20.56
2017-09-22T12:18:02.976Z,20.67
2017-09-22T12:19:03.714Z,20.60
2017-09-22T12:20:04.448Z,20.72
2017-09-22T12:21:05.191Z,20.84
2017-09-22T12:22:05.927Z,20.88
2017-09-22T12:23:06.688Z,21.07
2017-09-22T12:24:07.420Z,21.15
2017-09-22T12:25:08.157Z,21.40
2017-09-22T12:26:08.897Z,21.48
2017-09-22T12:27:09.637Z,21.43
2017-09-22T12:28:10.380Z,21.30
2017-09-22T12:29:11.111Z,21.32
2017-09-22T12:30:11.852Z,21.14
2017-09-22T12:31:12.592Z,21.05
2017-09-22T12:32:13.331Z,20.82
2017-09-22T12:33:14.094Z,20.82
2017-09-22T12:34:14.834Z,21.02
2017-09-22T12:35:15.571Z,21.07
2017-09-22T12:36:16.310Z,21.03
2017-09-22T12:37:17.069Z,21.25
2017-09-22T12:38:17.808Z,21.30
2017-09-22T12:39:18.543Z,21.40
2017-09-22T12:40:19.300Z,21.40
2017-09-22T12:41:20.057Z,21.15
2017-09-22T12:42:20.795Z,21.12
2017-09-22T12:43:21.555Z,21.06
2017-09-22T12:44:22.297Z,21.22
2017-09-22T12:45:23.036Z,20.81
2017-09-22T12:46:23.777Z,20.85
2017-09-22T12:47:24.513Z,20.93
2017-09-22T12:48:25.252Z,21.15
2017-09-22T12:49:26.018Z,21.54
2017-09-22T12:50:26.759Z,21.93
2017-09-22T12:51:27.494Z,22.41
2017-09-22T12:52:28.235Z,22.87
2017-09-22T12:53:28.978Z,23.08
2017-09-22T12:54:29.722Z,23.81
2017-09-22T12:55:30.485Z,24.01
2017-09-22T12:56:31.224Z,24.32
2017-09-22T12:57:31.962Z,23.96
2017-09-22T12:58:32.704Z,23.59
2017-09-22T12:59:33.465Z,23.66
2017-09-22T13:00:34.204Z,23.98
2017-09-22T13:01:34.962Z,24.26